createdAt,value
2022-08-30T00:00:45.340Z,50.902428
2022-08-30T00:01:45.324Z,50.902458
2022-08-30T00:02:45.571Z,50.902451
2022-08-30T00:03:45.438Z,50.902454
2022-08-30T00:04:45.300Z,50.902443
2022-08-30T00:05:45.291Z,50.902416
2022-08-30T00:06:45.284Z,50.902393
2022-08-30T00:07:45.308Z,50.902420
2022-08-30T00:08:45.260Z,50.902424
2022-08-30T00:09:46.260Z,50.902397
2022-08-30T00:10:45.270Z,50.902397
2022-08-30T00:11:45.240Z,50.902409
2022-08-30T00:12:45.255Z,50.902420
2022-08-30T00:13:45.223Z,50.902420
2022-08-30T00:14:45.215Z,50.902416
2022-08-30T00:15:45.271Z,50.902424
2022-08-30T00:16:45.200Z,50.902412
2022-08-30T00:17:45.223Z,50.902401
2022-08-30T00:18:45.190Z,50.902428
2022-08-30T00:19:45.178Z,50.902454
2022-08-30T00:20:45.178Z,50.902420
2022-08-30T00:21:45.167Z,50.902416
2022-08-30T00:22:45.187Z,50.902390
2022-08-30T00:23:45.140Z,50.902386
2022-08-30T00:24:45.138Z,50.902370
2022-08-30T00:25:45.131Z,50.902386
2022-08-30T00:26:45.126Z,50.902409
2022-08-30T00:27:45.137Z,50.902416
2022-08-30T00:28:45.106Z,50.902401
2022-08-30T00:29:45.102Z,50.902412
2022-08-30T00:30:45.171Z,50.902382
2022-08-30T00:31:45.082Z,50.902378
2022-08-30T00:32:45.098Z,50.902378
2022-08-30T00:33:45.066Z,50.902431
2022-08-30T00:34:45.069Z,50.902409
2022-08-30T00:35:45.053Z,50.902405
2022-08-30T00:36:45.048Z,50.902405
2022-08-30T00:37:45.067Z,50.902401
2022-08-30T00:38:45.035Z,50.902374
2022-08-30T00:39:45.025Z,50.902390
2022-08-30T00:40:45.073Z,50.902431
2022-08-30T00:41:45.017Z,50.902424
2022-08-30T00:42:45.027Z,50.902386
2022-08-30T00:43:45.995Z,50.902405
2022-08-30T00:44:44.990Z,50.902386
2022-08-30T00:45:44.981Z,50.902405
2022-08-30T00:46:45.024Z,50.902424
2022-08-30T00:47:44.994Z,50.902412
2022-08-30T00:48:44.959Z,50.902416
2022-08-30T00:49:44.953Z,50.902439
2022-08-30T00:50:44.943Z,50.902424
2022-08-30T00:51:44.943Z,50.902416
2022-08-30T00:52:44.981Z,50.902405
2022-08-30T00:53:44.920Z,50.902382
2022-08-30T00:54:44.912Z,50.902420
2022-08-30T00:55:44.906Z,50.902420
2022-08-30T00:56:44.902Z,50.902370
2022-08-30T00:57:44.924Z,50.902412
2022-08-30T00:58:44.890Z,50.902397
2022-08-30T00:59:44.877Z,50.902405
2022-08-30T01:00:44.890Z,50.902420
2022-08-30T01:01:44.906Z,50.902405
2022-08-30T01:02:44.904Z,50.902393
2022-08-30T01:03:44.856Z,50.902393
2022-08-30T01:04:44.840Z,50.902397
2022-08-30T01:05:44.828Z,50.902370
2022-08-30T01:06:44.825Z,50.902386
2022-08-30T01:07:44.850Z,50.902351
2022-08-30T01:08:44.813Z,50.902386
2022-08-30T01:09:44.802Z,50.902393
2022-08-30T01:10:44.793Z,50.902420
2022-08-30T01:11:44.789Z,50.902374
2022-08-30T01:12:44.808Z,50.902390
2022-08-30T01:13:44.767Z,50.902405
2022-08-30T01:14:44.762Z,50.902397
2022-08-30T01:15:44.805Z,50.902378
2022-08-30T01:16:44.746Z,50.902401
2022-08-30T01:17:44.778Z,50.902431
2022-08-30T01:18:44.734Z,50.902485
2022-08-30T01:19:44.722Z,50.902477
2022-08-30T01:20:44.742Z,50.902477
2022-08-30T01:21:44.731Z,50.902462
2022-08-30T01:22:45.025Z,50.902519
2022-08-30T01:23:44.682Z,50.902462
2022-08-30T01:24:45.694Z,50.902428
2022-08-30T01:25:44.684Z,50.902439
2022-08-30T01:26:44.676Z,50.902473
2022-08-30T01:27:44.696Z,50.902439
2022-08-30T01:28:44.658Z,50.902412
2022-08-30T01:29:44.648Z,50.902374
2022-08-30T01:30:44.693Z,50.902390
2022-08-30T01:31:44.639Z,50.902397
2022-08-30T01:32:44.630Z,50.902386
2022-08-30T01:33:44.650Z,50.902428
2022-08-30T01:34:44.613Z,50.902405
2022-08-30T01:35:44.604Z,50.902359
2022-08-30T01:36:45.114Z,50.902370
2022-08-30T01:37:44.620Z,50.902405
2022-08-30T01:38:44.580Z,50.902374
2022-08-30T01:39:44.575Z,50.902409
2022-08-30T01:40:44.597Z,50.902416
2022-08-30T01:41:44.557Z,50.902439
2022-08-30T01:42:44.577Z,50.902424
2022-08-30T01:43:44.544Z,50.902359
2022-08-30T01:44:44.533Z,50.902416
2022-08-30T01:45:44.577Z,50.902451
2022-08-30T01:46:44.518Z,50.902386
2022-08-30T01:47:44.538Z,50.902397
2022-08-30T01:48:50.243Z,50.902428
2022-08-30T01:49:45.497Z,50.902401
2022-08-30T01:50:44.485Z,50.902416
2022-08-30T01:51:44.479Z,50.902382
2022-08-30T01:52:44.496Z,50.902416
2022-08-30T01:53:44.463Z,50.902386
2022-08-30T01:54:44.463Z,50.902374
2022-08-30T01:55:44.450Z,50.902367
2022-08-30T01:56:44.444Z,50.902386
2022-08-30T01:57:44.465Z,50.902382
2022-08-30T01:58:44.442Z,50.902439
2022-08-30T02:00:16.935Z,50.902428
2022-08-30T02:00:44.412Z,50.902428
2022-08-30T02:01:44.439Z,50.902382
2022-08-30T02:02:44.569Z,50.902401
2022-08-30T02:03:44.486Z,50.902412
2022-08-30T02:04:44.380Z,50.902390
2022-08-30T02:05:44.380Z,50.902416
2022-08-30T02:06:44.363Z,50.902374
2022-08-30T02:07:44.382Z,50.902386
2022-08-30T02:08:44.353Z,50.902393
2022-08-30T02:09:44.357Z,50.902374
2022-08-30T02:10:44.335Z,50.902374
2022-08-30T02:11:44.327Z,50.902401
2022-08-30T02:12:44.354Z,50.902370
2022-08-30T02:13:44.313Z,50.902344
2022-08-30T02:14:44.311Z,50.902386
2022-08-30T02:15:44.309Z,50.902370
2022-08-30T02:16:44.327Z,50.902355
2022-08-30T02:17:44.285Z,50.902363
2022-08-30T02:18:44.292Z,50.902348
2022-08-30T02:19:44.263Z,50.902378
2022-08-30T02:20:44.257Z,50.902386
2022-08-30T02:21:44.246Z,50.902397
2022-08-30T02:22:49.162Z,50.902390
2022-08-30T02:23:45.258Z,50.902378
2022-08-30T02:24:44.229Z,50.902382
2022-08-30T02:25:44.225Z,50.902397
2022-08-30T02:26:44.209Z,50.902390
2022-08-30T02:27:44.206Z,50.902435
2022-08-30T02:28:50.091Z,50.902405
2022-08-30T02:29:45.181Z,50.902409
2022-08-30T02:30:44.220Z,50.902401
2022-08-30T02:31:44.171Z,50.902374
2022-08-30T02:32:44.172Z,50.902355
2022-08-30T02:33:44.178Z,50.902393
2022-08-30T02:34:44.149Z,50.902397
2022-08-30T02:35:44.138Z,50.902401
2022-08-30T02:36:44.126Z,50.902374
2022-08-30T02:37:44.144Z,50.902370
2022-08-30T02:38:44.138Z,50.902382
2022-08-30T02:39:44.106Z,50.902370
2022-08-30T02:40:44.174Z,50.902382
2022-08-30T02:41:44.089Z,50.902374
2022-08-30T02:42:44.080Z,50.902390
2022-08-30T02:43:44.126Z,50.902363
2022-08-30T02:44:44.074Z,50.902393
2022-08-30T02:45:44.129Z,50.902393
2022-08-30T02:46:44.053Z,50.902378
2022-08-30T02:47:46.981Z,50.902390
2022-08-30T02:48:45.074Z,50.902439
2022-08-30T02:49:44.030Z,50.902393
2022-08-30T02:50:44.026Z,50.902412
2022-08-30T02:51:44.017Z,50.902397
2022-08-30T02:52:48.108Z,50.902378
2022-08-30T02:53:44.047Z,50.902420
2022-08-30T02:54:43.998Z,50.902412
2022-08-30T02:55:43.989Z,50.902393
2022-08-30T02:56:44.006Z,50.902416
2022-08-30T02:57:44.004Z,50.902401
2022-08-30T02:58:44.013Z,50.902393
2022-08-30T02:59:43.963Z,50.902382
2022-08-30T03:00:44.029Z,50.902424
2022-08-30T03:01:44.001Z,50.902454
2022-08-30T03:02:43.931Z,50.902462
2022-08-30T03:03:43.986Z,50.902405
2022-08-30T03:04:43.912Z,50.902416
2022-08-30T03:05:43.908Z,50.902378
2022-08-30T03:06:43.906Z,50.902424
2022-08-30T03:07:43.894Z,50.902386
2022-08-30T03:08:43.912Z,50.902393
2022-08-30T03:09:43.883Z,50.902340
2022-08-30T03:10:43.867Z,50.902363
2022-08-30T03:11:43.867Z,50.902390
2022-08-30T03:12:43.864Z,50.902405
2022-08-30T03:13:43.881Z,50.902431
2022-08-30T03:14:43.843Z,50.902431
2022-08-30T03:15:43.842Z,50.902443
2022-08-30T03:16:43.890Z,50.902424
2022-08-30T03:17:43.820Z,50.902428
2022-08-30T03:18:43.852Z,50.902435
2022-08-30T03:19:43.813Z,50.902485
2022-08-30T03:20:44.002Z,50.902439
2022-08-30T03:21:43.795Z,50.902405
2022-08-30T03:22:43.790Z,50.902431
2022-08-30T03:23:43.801Z,50.902451
2022-08-30T03:24:43.775Z,50.902443
2022-08-30T03:25:43.763Z,50.902420
2022-08-30T03:26:46.442Z,50.902431
2022-08-30T03:27:44.748Z,50.902405
2022-08-30T03:28:43.772Z,50.902416
2022-08-30T03:29:43.736Z,50.902424
2022-08-30T03:30:43.734Z,50.902424
2022-08-30T03:31:53.122Z,50.902409
2022-08-30T03:32:44.718Z,50.902412
2022-08-30T03:33:43.730Z,50.902409
2022-08-30T03:34:43.699Z,50.902401
2022-08-30T03:35:43.690Z,50.902443
2022-08-30T03:36:43.687Z,50.902412
2022-08-30T03:37:43.679Z,50.902393
2022-08-30T03:38:43.698Z,50.902386
2022-08-30T03:39:43.661Z,50.902401
2022-08-30T03:40:43.714Z,50.902390
2022-08-30T03:41:43.651Z,50.902328
2022-08-30T03:42:43.638Z,50.902317
2022-08-30T03:43:43.629Z,50.902370
2022-08-30T03:44:43.651Z,50.902370
2022-08-30T03:45:43.689Z,50.902405
2022-08-30T03:46:43.606Z,50.902351
2022-08-30T03:47:43.596Z,50.902355
2022-08-30T03:48:43.600Z,50.902374
2022-08-30T03:49:43.612Z,50.902374
2022-08-30T03:50:43.581Z,50.902370
2022-08-30T03:51:43.573Z,50.902409
2022-08-30T03:52:43.569Z,50.902397
2022-08-30T03:53:43.558Z,50.902370
2022-08-30T03:54:43.588Z,50.902485
2022-08-30T03:55:43.546Z,50.902386
2022-08-30T03:56:43.535Z,50.902370
2022-08-30T03:57:43.862Z,50.902378
2022-08-30T03:58:43.522Z,50.902386
2022-08-30T03:59:43.540Z,50.902287
2022-08-30T04:00:43.567Z,50.902378
2022-08-30T04:01:43.656Z,50.902359
2022-08-30T04:02:43.539Z,50.902409
2022-08-30T04:03:43.482Z,50.902390
2022-08-30T04:04:43.500Z,50.902409
2022-08-30T04:05:43.476Z,50.902359
2022-08-30T04:06:43.456Z,50.902367
2022-08-30T04:07:43.458Z,50.902401
2022-08-30T04:08:43.460Z,50.902393
2022-08-30T04:09:43.462Z,50.902378
2022-08-30T04:10:43.433Z,50.902386
2022-08-30T04:11:43.423Z,50.902397
2022-08-30T04:12:48.919Z,50.902409
2022-08-30T04:13:45.406Z,50.902409
2022-08-30T04:14:43.433Z,50.902412
2022-08-30T04:15:43.388Z,50.902382
2022-08-30T04:16:43.462Z,50.902367
2022-08-30T04:17:44.386Z,50.902386
2022-08-30T04:18:43.372Z,50.902405
2022-08-30T04:19:43.382Z,50.902409
2022-08-30T04:20:43.364Z,50.902390
2022-08-30T04:21:43.454Z,50.902393
2022-08-30T04:22:43.336Z,50.902401
2022-08-30T04:23:43.338Z,50.902435
2022-08-30T04:24:43.349Z,50.902405
2022-08-30T04:25:43.321Z,50.902390
2022-08-30T04:26:43.310Z,50.902409
2022-08-30T04:27:43.302Z,50.902409
2022-08-30T04:28:43.291Z,50.902397
2022-08-30T04:29:43.303Z,50.902401
2022-08-30T04:30:43.267Z,50.902420
2022-08-30T04:31:43.324Z,50.902405
2022-08-30T04:32:43.242Z,50.902401
2022-08-30T04:33:44.246Z,50.902397
2022-08-30T04:34:43.261Z,50.902393
2022-08-30T04:35:43.228Z,50.902401
2022-08-30T04:36:48.233Z,50.902393
2022-08-30T04:37:44.205Z,50.902393
2022-08-30T04:38:43.228Z,50.902401
2022-08-30T04:39:43.189Z,50.902386
2022-08-30T04:40:43.238Z,50.902378
2022-08-30T04:41:43.187Z,50.902370
2022-08-30T04:42:43.168Z,50.902390
2022-08-30T04:43:43.191Z,50.902374
2022-08-30T04:44:43.151Z,50.902370
2022-08-30T04:45:43.225Z,50.902390
2022-08-30T04:46:44.734Z,50.902378
2022-08-30T04:47:43.128Z,50.902374
2022-08-30T04:48:43.152Z,50.902370
2022-08-30T04:49:43.115Z,50.902363
2022-08-30T04:50:43.116Z,50.902370
2022-08-30T04:51:43.104Z,50.902374
2022-08-30T04:52:43.097Z,50.902374
2022-08-30T04:53:43.083Z,50.902382
2022-08-30T04:54:43.103Z,50.902382
2022-08-30T04:55:43.075Z,50.902378
2022-08-30T04:56:43.065Z,50.902374
2022-08-30T04:57:43.051Z,50.902386
2022-08-30T04:58:43.043Z,50.902359
2022-08-30T04:59:43.063Z,50.902397
2022-08-30T05:00:43.062Z,50.902397
2022-08-30T05:01:45.203Z,50.902393
2022-08-30T05:02:43.076Z,50.902401
2022-08-30T05:03:43.004Z,50.902386
2022-08-30T05:04:43.023Z,50.902367
2022-08-30T05:05:42.987Z,50.902370
2022-08-30T05:06:42.984Z,50.902370
2022-08-30T05:07:42.976Z,50.902386
2022-08-30T05:08:46.609Z,50.902386
2022-08-30T05:09:42.974Z,50.902382
2022-08-30T05:10:43.951Z,50.902390
2022-08-30T05:11:42.947Z,50.902374
2022-08-30T05:12:42.934Z,50.902378
2022-08-30T05:13:42.931Z,50.902390
2022-08-30T05:14:42.955Z,50.902386
2022-08-30T05:15:42.909Z,50.902382
2022-08-30T05:16:42.941Z,50.902390
2022-08-30T05:17:42.897Z,50.902374
2022-08-30T05:18:42.888Z,50.902370
2022-08-30T05:19:42.909Z,50.902351
2022-08-30T05:20:42.871Z,50.902393
2022-08-30T05:21:42.862Z,50.902374
2022-08-30T05:22:42.859Z,50.902348
2022-08-30T05:23:42.847Z,50.902348
2022-08-30T05:24:42.880Z,50.902355
2022-08-30T05:25:42.833Z,50.902332
2022-08-30T05:26:42.882Z,50.902359
2022-08-30T05:27:42.820Z,50.902367
2022-08-30T05:28:42.812Z,50.902359
2022-08-30T05:29:42.833Z,50.902370
2022-08-30T05:30:42.792Z,50.902340
2022-08-30T05:31:42.826Z,50.902336
2022-08-30T05:32:42.794Z,50.902340
2022-08-30T05:33:42.784Z,50.902359
2022-08-30T05:34:42.794Z,50.902351
2022-08-30T05:35:42.753Z,50.902336
2022-08-30T05:36:42.744Z,50.902351
2022-08-30T05:37:42.742Z,50.902344
2022-08-30T05:38:42.732Z,50.902344
2022-08-30T05:39:45.054Z,50.902348
2022-08-30T05:40:43.796Z,50.902348
2022-08-30T05:41:42.712Z,50.902359
2022-08-30T05:42:42.702Z,50.902340
2022-08-30T05:43:42.693Z,50.902374
2022-08-30T05:44:44.342Z,50.902374
2022-08-30T05:45:42.689Z,50.902363
2022-08-30T05:46:42.675Z,50.902355
2022-08-30T05:47:42.661Z,50.902355
2022-08-30T05:48:42.658Z,50.902378
2022-08-30T05:49:42.670Z,50.902348
2022-08-30T05:50:42.644Z,50.902355
2022-08-30T05:51:43.285Z,50.902336
2022-08-30T05:52:42.629Z,50.902348
2022-08-30T05:53:42.616Z,50.902351
2022-08-30T05:54:42.641Z,50.902325
2022-08-30T05:55:42.604Z,50.902351
2022-08-30T05:56:42.625Z,50.902390
2022-08-30T05:57:42.607Z,50.902363
2022-08-30T05:58:42.582Z,50.902374
2022-08-30T05:59:42.606Z,50.902355
2022-08-30T06:00:42.571Z,50.902370
2022-08-30T06:01:42.687Z,50.902363
2022-08-30T06:02:42.600Z,50.902359
2022-08-30T06:03:42.548Z,50.902378
2022-08-30T06:04:42.561Z,50.902390
2022-08-30T06:05:42.571Z,50.902390
2022-08-30T06:06:42.520Z,50.902386
2022-08-30T06:07:42.511Z,50.902374
2022-08-30T06:08:42.507Z,50.902412
2022-08-30T06:09:42.526Z,50.902351
2022-08-30T06:10:42.493Z,50.902363
2022-08-30T06:11:42.482Z,50.902370
2022-08-30T06:12:42.469Z,50.902351
2022-08-30T06:13:42.472Z,50.902386
2022-08-30T06:14:42.492Z,50.902367
2022-08-30T06:15:42.477Z,50.902374
2022-08-30T06:16:42.444Z,50.902344
2022-08-30T06:17:42.440Z,50.902363
2022-08-30T06:18:42.430Z,50.902382
2022-08-30T06:19:42.418Z,50.902390
2022-08-30T06:20:42.441Z,50.902378
2022-08-30T06:21:42.402Z,50.902370
2022-08-30T06:22:42.396Z,50.902378
2022-08-30T06:23:42.391Z,50.902374
2022-08-30T06:24:57.089Z,50.902355
2022-08-30T06:25:44.399Z,50.902367
2022-08-30T06:26:42.364Z,50.902382
2022-08-30T06:27:42.364Z,50.902412
2022-08-30T06:28:42.364Z,50.902409
2022-08-30T06:29:42.343Z,50.902393
2022-08-30T06:30:42.362Z,50.902386
2022-08-30T06:31:42.359Z,50.902386
2022-08-30T06:32:42.323Z,50.902382
2022-08-30T06:33:42.310Z,50.902363
2022-08-30T06:34:42.327Z,50.902359
2022-08-30T06:35:58.260Z,50.902378
2022-08-30T06:36:44.294Z,50.902378
2022-08-30T06:37:42.284Z,50.902374
2022-08-30T06:38:42.280Z,50.902378
2022-08-30T06:39:42.272Z,50.902344
2022-08-30T06:40:42.343Z,50.902401
2022-08-30T06:41:42.262Z,50.902416
2022-08-30T06:42:42.246Z,50.902401
2022-08-30T06:43:46.762Z,50.902393
2022-08-30T06:44:45.702Z,50.902386
2022-08-30T06:45:42.251Z,50.902378
2022-08-30T06:46:42.321Z,50.902367
2022-08-30T06:47:42.202Z,50.902382
2022-08-30T06:48:43.096Z,50.902386
2022-08-30T06:49:42.182Z,50.902390
2022-08-30T06:50:43.205Z,50.902359
2022-08-30T06:51:42.169Z,50.902431
2022-08-30T06:52:42.164Z,50.902409
2022-08-30T06:53:42.192Z,50.902397
2022-08-30T06:54:42.155Z,50.902390
2022-08-30T06:55:42.163Z,50.902409
2022-08-30T06:56:57.712Z,50.902405
2022-08-30T06:57:44.125Z,50.902401
2022-08-30T06:58:42.129Z,50.902393
2022-08-30T06:59:42.105Z,50.902397
2022-08-30T07:00:42.143Z,50.902420
2022-08-30T07:01:42.162Z,50.902416
2022-08-30T07:02:42.141Z,50.902428
2022-08-30T07:03:42.079Z,50.902431
2022-08-30T07:04:42.078Z,50.902401
2022-08-30T07:05:42.089Z,50.902412
2022-08-30T07:06:42.057Z,50.902374
2022-08-30T07:07:42.051Z,50.902397
2022-08-30T07:08:42.036Z,50.902428
2022-08-30T07:09:42.031Z,50.902431
2022-08-30T07:10:42.046Z,50.902443
2022-08-30T07:11:42.021Z,50.902424
2022-08-30T07:12:42.004Z,50.902431
2022-08-30T07:13:42.002Z,50.902416
2022-08-30T07:14:41.996Z,50.902416
2022-08-30T07:15:42.072Z,50.902420
2022-08-30T07:16:41.976Z,50.902409
2022-08-30T07:17:41.966Z,50.902420
2022-08-30T07:18:41.960Z,50.902431
2022-08-30T07:19:41.946Z,50.902447
2022-08-30T07:20:41.990Z,50.902412
2022-08-30T07:21:41.995Z,50.902447
2022-08-30T07:22:41.925Z,50.902443
2022-08-30T07:23:41.925Z,50.902428
2022-08-30T07:24:41.913Z,50.902431
2022-08-30T07:25:41.939Z,50.902431
2022-08-30T07:26:41.893Z,50.902431
2022-08-30T07:27:41.888Z,50.902462
2022-08-30T07:28:41.882Z,50.902431
2022-08-30T07:29:41.855Z,50.902424
2022-08-30T07:30:42.893Z,50.902439
2022-08-30T07:31:41.860Z,50.902443
2022-08-30T07:32:41.848Z,50.902416
2022-08-30T07:33:41.850Z,50.902412
2022-08-30T07:34:41.831Z,50.902405
2022-08-30T07:35:41.896Z,50.902420
2022-08-30T07:36:41.871Z,50.902431
2022-08-30T07:37:41.810Z,50.902409
2022-08-30T07:38:41.800Z,50.902439
2022-08-30T07:39:45.843Z,50.902424
2022-08-30T07:40:43.931Z,50.902439
2022-08-30T07:41:41.780Z,50.902481
2022-08-30T07:42:41.779Z,50.902454
2022-08-30T07:43:41.764Z,50.902500
2022-08-30T07:44:41.756Z,50.902473
2022-08-30T07:45:41.765Z,50.902470
2022-08-30T07:46:41.820Z,50.902470
2022-08-30T07:47:41.744Z,50.902473
2022-08-30T07:48:41.733Z,50.902443
2022-08-30T07:49:41.756Z,50.902481
2022-08-30T07:50:41.746Z,50.902462
2022-08-30T07:51:41.714Z,50.902439
2022-08-30T07:52:41.716Z,50.902454
2022-08-30T07:53:41.692Z,50.902451
2022-08-30T07:54:41.685Z,50.902435
2022-08-30T07:55:41.680Z,50.902454
2022-08-30T07:56:41.696Z,50.902481
2022-08-30T07:57:41.670Z,50.902485
2022-08-30T07:58:41.660Z,50.902462
2022-08-30T07:59:41.663Z,50.902458
2022-08-30T08:00:41.642Z,50.902454
2022-08-30T08:01:41.727Z,50.902428
2022-08-30T08:02:41.669Z,50.902439
2022-08-30T08:03:41.619Z,50.902473
2022-08-30T08:04:41.648Z,50.902470
2022-08-30T08:05:41.612Z,50.902428
2022-08-30T08:06:41.621Z,50.902458
2022-08-30T08:07:41.586Z,50.902451
2022-08-30T08:08:41.594Z,50.902431
2022-08-30T08:09:41.587Z,50.902462
2022-08-30T08:10:41.564Z,50.902512
2022-08-30T08:11:41.573Z,50.902485
2022-08-30T08:12:41.541Z,50.902462
2022-08-30T08:13:48.972Z,50.902466
2022-08-30T08:14:42.540Z,50.902428
2022-08-30T08:15:41.553Z,50.902401
2022-08-30T08:16:41.543Z,50.902431
2022-08-30T08:17:41.503Z,50.902393
2022-08-30T08:18:41.507Z,50.902393
2022-08-30T08:19:41.499Z,50.902409
2022-08-30T08:20:41.483Z,50.902328
2022-08-30T08:21:41.503Z,50.902409
2022-08-30T08:22:41.474Z,50.902424
2022-08-30T08:23:41.463Z,50.902439
2022-08-30T08:24:41.448Z,50.902489
2022-08-30T08:25:41.434Z,50.902481
2022-08-30T08:26:45.262Z,50.902454
2022-08-30T08:27:41.438Z,50.902451
2022-08-30T08:28:41.441Z,50.902435
2022-08-30T08:29:41.431Z,50.902382
2022-08-30T08:30:45.107Z,50.902454
2022-08-30T08:31:43.454Z,50.902447
2022-08-30T08:32:41.750Z,50.902405
2022-08-30T08:33:41.387Z,50.902447
2022-08-30T08:34:41.390Z,50.902462
2022-08-30T08:35:41.398Z,50.902420
2022-08-30T08:36:41.403Z,50.902428
2022-08-30T08:37:41.358Z,50.902454
2022-08-30T08:38:41.335Z,50.902451
2022-08-30T08:39:41.343Z,50.902462
2022-08-30T08:40:41.369Z,50.902447
2022-08-30T08:41:41.356Z,50.902424
2022-08-30T08:42:41.345Z,50.902473
2022-08-30T08:43:41.308Z,50.902477
2022-08-30T08:44:41.339Z,50.902466
2022-08-30T08:45:41.288Z,50.902466
2022-08-30T08:46:41.388Z,50.902462
2022-08-30T08:47:41.277Z,50.902428
2022-08-30T08:48:59.103Z,50.902428
2022-08-30T08:49:43.263Z,50.902447
2022-08-30T08:50:41.305Z,50.902451
2022-08-30T08:51:41.272Z,50.902451
2022-08-30T08:52:41.237Z,50.902447
2022-08-30T08:53:48.372Z,50.902466
2022-08-30T08:54:43.241Z,50.902439
2022-08-30T08:55:41.253Z,50.902424
2022-08-30T08:56:41.285Z,50.902420
2022-08-30T08:57:41.212Z,50.902409
2022-08-30T08:58:41.250Z,50.902435
2022-08-30T08:59:41.193Z,50.902435
2022-08-30T09:00:41.219Z,50.902443
2022-08-30T09:01:41.265Z,50.902401
2022-08-30T09:02:41.163Z,50.902473
2022-08-30T09:03:41.164Z,50.902431
2022-08-30T09:04:41.168Z,50.902424
2022-08-30T09:05:41.141Z,50.902401
2022-08-30T09:06:45.377Z,50.902439
2022-08-30T09:07:41.123Z,50.902420
2022-08-30T09:08:41.161Z,50.902431
2022-08-30T09:09:41.144Z,50.902439
2022-08-30T09:10:50.500Z,50.902435
2022-08-30T09:11:59.134Z,50.902451
2022-08-30T09:12:42.101Z,50.902454
2022-08-30T09:13:41.079Z,50.902447
2022-08-30T09:14:45.969Z,50.902451
2022-08-30T09:15:42.093Z,50.902431
2022-08-30T09:16:41.112Z,50.902439
2022-08-30T09:17:41.061Z,50.902431
2022-08-30T09:18:41.061Z,50.902431
2022-08-30T09:19:41.035Z,50.902431
2022-08-30T09:20:41.023Z,50.902416
2022-08-30T09:21:41.433Z,50.902431
2022-08-30T09:22:40.993Z,50.902397
2022-08-30T09:23:41.010Z,50.902393
2022-08-30T09:24:40.984Z,50.902405
2022-08-30T09:25:41.903Z,50.902397
2022-08-30T09:26:42.002Z,50.902397
2022-08-30T09:27:40.957Z,50.902431
2022-08-30T09:28:40.944Z,50.902393
2022-08-30T09:29:40.961Z,50.902363
2022-08-30T09:30:41.046Z,50.902386
2022-08-30T09:31:40.957Z,50.902367
2022-08-30T09:32:40.910Z,50.902378
2022-08-30T09:33:40.921Z,50.902370
2022-08-30T09:34:40.903Z,50.902370
2022-08-30T09:35:40.887Z,50.902382
2022-08-30T09:36:40.929Z,50.902401
2022-08-30T09:37:40.885Z,50.902390
2022-08-30T09:38:40.863Z,50.902416
2022-08-30T09:39:40.858Z,50.902412
2022-08-30T09:40:40.896Z,50.902359
2022-08-30T09:41:41.868Z,50.902367
2022-08-30T09:42:40.836Z,50.902355
2022-08-30T09:43:40.837Z,50.902386
2022-08-30T09:44:40.822Z,50.902351
2022-08-30T09:45:40.812Z,50.902386
2022-08-30T09:46:40.896Z,50.902378
2022-08-30T09:47:40.819Z,50.902409
2022-08-30T09:48:40.798Z,50.902393
2022-08-30T09:49:40.785Z,50.902382
2022-08-30T09:50:42.281Z,50.902359
2022-08-30T09:51:40.825Z,50.902378
2022-08-30T09:52:40.948Z,50.902344
2022-08-30T09:53:50.949Z,50.902351
2022-08-30T09:54:42.744Z,50.902370
2022-08-30T09:55:40.748Z,50.902370
2022-08-30T09:56:40.726Z,50.902279
2022-08-30T09:57:40.756Z,50.902355
2022-08-30T09:58:40.718Z,50.902351
2022-08-30T09:59:40.716Z,50.902317
2022-08-30T10:00:40.694Z,50.902321
2022-08-30T10:01:40.746Z,50.902351
2022-08-30T10:02:40.706Z,50.902336
2022-08-30T10:03:41.204Z,50.902317
2022-08-30T10:04:40.671Z,50.902351
2022-08-30T10:05:40.673Z,50.902328
2022-08-30T10:06:42.090Z,50.902325
2022-08-30T10:07:40.645Z,50.902317
2022-08-30T10:08:40.682Z,50.902332
2022-08-30T10:09:40.659Z,50.902328
2022-08-30T10:10:45.254Z,50.902321
2022-08-30T10:11:42.649Z,50.902328
2022-08-30T10:12:40.620Z,50.902359
2022-08-30T10:13:40.718Z,50.902355
2022-08-30T10:14:40.591Z,50.902374
2022-08-30T10:15:40.593Z,50.902416
2022-08-30T10:16:40.620Z,50.902393
2022-08-30T10:17:40.571Z,50.902382
2022-08-30T10:18:40.558Z,50.902393
2022-08-30T10:19:40.549Z,50.902374
2022-08-30T10:20:40.559Z,50.902378
2022-08-30T10:21:40.577Z,50.902401
2022-08-30T10:22:40.530Z,50.902363
2022-08-30T10:23:40.520Z,50.902401
2022-08-30T10:24:40.522Z,50.902397
2022-08-30T10:25:40.566Z,50.902386
2022-08-30T10:26:40.536Z,50.902386
2022-08-30T10:27:40.480Z,50.902382
2022-08-30T10:28:41.482Z,50.902359
2022-08-30T10:29:42.506Z,50.902340
2022-08-30T10:30:41.464Z,50.902332
2022-08-30T10:31:40.457Z,50.902367
2022-08-30T10:32:40.481Z,50.902298
2022-08-30T10:33:40.458Z,50.902355
2022-08-30T10:34:40.446Z,50.902367
2022-08-30T10:35:40.443Z,50.902355
2022-08-30T10:36:40.449Z,50.902363
2022-08-30T10:37:40.423Z,50.902367
2022-08-30T10:38:40.409Z,50.902363
2022-08-30T10:39:40.400Z,50.902367
2022-08-30T10:40:40.457Z,50.902378
2022-08-30T10:41:40.410Z,50.902397
2022-08-30T10:42:40.382Z,50.902378
2022-08-30T10:43:40.408Z,50.902390
2022-08-30T10:44:41.313Z,50.902393
2022-08-30T10:45:40.362Z,50.902397
2022-08-30T10:46:40.377Z,50.902420
2022-08-30T10:47:40.340Z,50.902405
2022-08-30T10:48:40.362Z,50.902386
2022-08-30T10:49:40.622Z,50.902386
2022-08-30T10:50:41.444Z,50.902374
2022-08-30T10:51:40.345Z,50.902370
2022-08-30T10:52:40.304Z,50.902374
2022-08-30T10:53:40.299Z,50.902378
2022-08-30T10:54:40.289Z,50.902378
2022-08-30T10:55:40.301Z,50.902382
2022-08-30T10:56:40.310Z,50.902378
2022-08-30T10:57:41.877Z,50.902363
2022-08-30T10:58:40.265Z,50.902359
2022-08-30T10:59:40.251Z,50.902359
2022-08-30T11:00:40.251Z,50.902325
2022-08-30T11:01:46.647Z,50.902355
2022-08-30T11:02:41.293Z,50.902359
2022-08-30T11:03:40.249Z,50.902382
2022-08-30T11:04:40.244Z,50.902386
2022-08-30T11:05:42.080Z,50.902424
2022-08-30T11:06:40.195Z,50.902412
2022-08-30T11:07:40.192Z,50.902443
2022-08-30T11:08:40.187Z,50.902370
2022-08-30T11:09:40.205Z,50.902401
2022-08-30T11:10:40.161Z,50.902416
2022-08-30T11:11:40.736Z,50.902416
2022-08-30T11:12:40.158Z,50.902416
2022-08-30T11:13:40.141Z,50.902443
2022-08-30T11:14:40.170Z,50.902431
2022-08-30T11:15:40.151Z,50.902409
2022-08-30T11:16:40.131Z,50.902397
2022-08-30T11:17:40.120Z,50.902390
2022-08-30T11:18:40.105Z,50.902405
2022-08-30T11:19:40.852Z,50.902382
2022-08-30T11:20:40.094Z,50.902374
2022-08-30T11:21:40.087Z,50.902382
2022-08-30T11:22:40.093Z,50.902401
2022-08-30T11:23:40.086Z,50.902416
2022-08-30T11:24:40.107Z,50.902405